Terminal Aerodrome Forecast
Issued by NWS

Home | Current Version | Previous Version | Graphics & Text | Print | Product List | Glossary On
Versions: 1 2 3 4 5 6 7 8 9 10 11 12 13 14 15 16 17 18 19 20 21 22
000
FTUS43 KBIS 011100
TAFMOT
TAF
KMOT 011135Z 0112/0212 22012KT P6SM VCSH BKN008 OVC018
      TEMPO 0112/0114 OVC014
     FM011400 27018G24KT P6SM VCSH BKN012 OVC025
     FM011800 28022G30KT P6SM BKN035 BKN080
     FM020100 26012KT P6SM BKN040
     FM020600 25006KT P6SM SCT050 BKN250=

USA.gov is the U.S. government's official web portal to all federal, state and local government web resources and services.